createdAt,value
2023-02-11T00:00:55.745Z,1030.08
2023-02-11T00:01:55.756Z,1030.08
2023-02-11T00:02:55.759Z,1030.08
2023-02-11T00:03:55.700Z,1030.06
2023-02-11T00:04:55.716Z,1030.09
2023-02-11T00:06:03.209Z,1030.08
2023-02-11T00:06:55.679Z,1030.11
2023-02-11T00:08:02.676Z,1030.13
2023-02-11T00:09:02.662Z,1030.12
2023-02-11T00:09:55.653Z,1030.15
2023-02-11T00:10:55.633Z,1030.17
2023-02-11T00:11:55.614Z,1030.17
2023-02-11T00:12:55.603Z,1030.15
2023-02-11T00:13:55.614Z,1030.09
2023-02-11T00:14:55.622Z,1030.09
2023-02-11T00:15:55.578Z,1030.12
2023-02-11T00:16:55.630Z,1030.13
2023-02-11T00:17:55.542Z,1030.11
2023-02-11T00:18:55.538Z,1030.13
2023-02-11T00:19:55.533Z,1030.11
2023-02-11T00:20:55.516Z,1030.11
2023-02-11T00:21:55.503Z,1030.14
2023-02-11T00:22:55.499Z,1030.10
2023-02-11T00:23:55.483Z,1030.11
2023-02-11T00:24:55.474Z,1030.11
2023-02-11T00:25:55.452Z,1030.10
2023-02-11T00:26:55.473Z,1030.08
2023-02-11T00:27:55.472Z,1030.07
2023-02-11T00:28:55.413Z,1030.06
2023-02-11T00:29:55.412Z,1030.06
2023-02-11T00:30:55.541Z,1030.04
2023-02-11T00:31:55.556Z,1030.08
2023-02-11T00:32:55.391Z,1030.11
2023-02-11T00:33:55.363Z,1030.10
2023-02-11T00:34:55.364Z,1030.08
2023-02-11T00:35:55.337Z,1030.09
2023-02-11T00:36:55.339Z,1030.09
2023-02-11T00:37:55.327Z,1030.08
2023-02-11T00:38:55.305Z,1030.03
2023-02-11T00:39:55.309Z,1030.01
2023-02-11T00:40:55.287Z,1030.04
2023-02-11T00:41:55.260Z,1030.01
2023-02-11T00:42:55.270Z,1030.02
2023-02-11T00:43:55.239Z,1030.04
2023-02-11T00:44:55.256Z,1030.02
2023-02-11T00:45:55.237Z,1030.02
2023-02-11T00:46:55.212Z,1030.00
2023-02-11T00:47:55.213Z,1029.98
2023-02-11T00:48:55.223Z,1029.98
2023-02-11T00:49:55.181Z,1029.94
2023-02-11T00:50:55.169Z,1029.95
2023-02-11T00:51:55.149Z,1029.89
2023-02-11T00:52:55.159Z,1029.85
2023-02-11T00:53:55.127Z,1029.83
2023-02-11T00:54:55.135Z,1029.78
2023-02-11T00:55:55.110Z,1029.76
2023-02-11T00:56:55.089Z,1029.73
2023-02-11T00:57:55.109Z,1029.72
2023-02-11T00:58:55.102Z,1029.68
2023-02-11T00:59:55.060Z,1029.69
2023-02-11T01:00:55.049Z,1029.71
2023-02-11T01:01:55.054Z,1029.68
2023-02-11T01:02:55.044Z,1029.68
2023-02-11T01:03:55.018Z,1029.65
2023-02-11T01:04:55.025Z,1029.65
2023-02-11T01:05:55.000Z,1029.64
2023-02-11T01:06:54.991Z,1029.62
2023-02-11T01:07:54.982Z,1029.62
2023-02-11T01:08:54.960Z,1029.60
2023-02-11T01:09:54.975Z,1029.57
2023-02-11T01:10:54.933Z,1029.51
2023-02-11T01:11:54.944Z,1029.46
2023-02-11T01:12:54.924Z,1029.45
2023-02-11T01:13:54.913Z,1029.44
2023-02-11T01:14:54.894Z,1029.43
2023-02-11T01:15:54.963Z,1029.40
2023-02-11T01:16:54.867Z,1029.37
2023-02-11T01:17:54.882Z,1029.38
2023-02-11T01:18:54.845Z,1029.33
2023-02-11T01:19:54.855Z,1029.26
2023-02-11T01:20:54.826Z,1029.28
2023-02-11T01:21:54.815Z,1029.27
2023-02-11T01:22:54.795Z,1029.30
2023-02-11T01:23:54.805Z,1029.32
2023-02-11T01:24:54.841Z,1029.29
2023-02-11T01:25:54.788Z,1029.29
2023-02-11T01:26:54.757Z,1029.29
2023-02-11T01:27:54.805Z,1029.09
2023-02-11T01:28:54.744Z,1029.09
2023-02-11T01:29:54.726Z,1029.09
2023-02-11T01:30:54.761Z,1029.02
2023-02-11T01:31:54.765Z,1029.00
2023-02-11T01:32:54.708Z,1028.97
2023-02-11T01:33:54.679Z,1028.94
2023-02-11T01:34:54.647Z,1028.92
2023-02-11T01:36:01.670Z,1028.88
2023-02-11T01:37:01.640Z,1028.83
2023-02-11T01:38:02.661Z,1028.81
2023-02-11T01:39:01.645Z,1028.77
2023-02-11T01:40:02.137Z,1028.75
2023-02-11T01:40:54.596Z,1028.72
2023-02-11T01:41:54.598Z,1028.71
2023-02-11T01:42:54.587Z,1028.69
2023-02-11T01:43:54.565Z,1028.69
2023-02-11T01:44:54.543Z,1028.68
2023-02-11T01:45:54.566Z,1028.68
2023-02-11T01:46:54.527Z,1028.68
2023-02-11T01:47:54.529Z,1028.67
2023-02-11T01:48:54.516Z,1028.62
2023-02-11T01:49:54.496Z,1028.61
2023-02-11T01:50:54.486Z,1028.58
2023-02-11T01:51:54.465Z,1028.39
2023-02-11T01:52:54.466Z,1028.40
2023-02-11T01:53:54.445Z,1028.38
2023-02-11T01:54:54.434Z,1028.36
2023-02-11T01:55:54.428Z,1028.34
2023-02-11T01:56:54.414Z,1028.33
2023-02-11T01:57:54.425Z,1028.32
2023-02-11T01:58:54.386Z,1028.26
2023-02-11T01:59:54.397Z,1028.28
2023-02-11T02:00:54.355Z,1028.23
2023-02-11T02:01:54.470Z,1028.22
2023-02-11T02:02:54.334Z,1028.21
2023-02-11T02:03:54.508Z,1028.20
2023-02-11T02:04:54.337Z,1028.15
2023-02-11T02:05:54.311Z,1028.14
2023-02-11T02:06:54.298Z,1028.12
2023-02-11T02:07:54.297Z,1028.08
2023-02-11T02:08:54.270Z,1028.07
2023-02-11T02:09:54.286Z,1028.02
2023-02-11T02:10:54.277Z,1028.01
2023-02-11T02:11:54.242Z,1028.01
2023-02-11T02:12:54.222Z,1028.00
2023-02-11T02:13:54.220Z,1028.01
2023-02-11T02:14:54.214Z,1028.02
2023-02-11T02:15:54.279Z,1028.02
2023-02-11T02:16:54.205Z,1028.02
2023-02-11T02:17:54.157Z,1028.01
2023-02-11T02:18:54.190Z,1027.84
2023-02-11T02:19:54.142Z,1027.81
2023-02-11T02:20:54.135Z,1027.79
2023-02-11T02:21:54.111Z,1027.78
2023-02-11T02:22:54.142Z,1027.77
2023-02-11T02:23:54.095Z,1027.72
2023-02-11T02:24:54.223Z,1027.71
2023-02-11T02:25:54.095Z,1027.65
2023-02-11T02:26:54.065Z,1027.63
2023-02-11T02:27:54.040Z,1027.65
2023-02-11T02:28:54.033Z,1027.63
2023-02-11T02:29:54.061Z,1027.67
2023-02-11T02:30:54.143Z,1027.66
2023-02-11T02:31:54.017Z,1027.69
2023-02-11T02:32:53.993Z,1027.69
2023-02-11T02:33:53.985Z,1027.72
2023-02-11T02:34:53.968Z,1027.74
2023-02-11T02:35:53.950Z,1027.75
2023-02-11T02:36:53.940Z,1027.73
2023-02-11T02:37:53.940Z,1027.73
2023-02-11T02:38:53.940Z,1027.72
2023-02-11T02:39:53.905Z,1027.74
2023-02-11T02:40:53.903Z,1027.71
2023-02-11T02:41:53.880Z,1027.73
2023-02-11T02:42:53.888Z,1027.74
2023-02-11T02:43:53.894Z,1027.72
2023-02-11T02:44:53.853Z,1027.73
2023-02-11T02:45:53.847Z,1027.73
2023-02-11T02:46:53.934Z,1027.71
2023-02-11T02:47:53.814Z,1027.71
2023-02-11T02:48:53.826Z,1027.72
2023-02-11T02:49:53.793Z,1027.71
2023-02-11T02:50:53.788Z,1027.74
2023-02-11T02:51:53.785Z,1027.74
2023-02-11T02:52:53.772Z,1027.71
2023-02-11T02:53:53.762Z,1027.73
2023-02-11T02:54:53.744Z,1027.68
2023-02-11T02:55:53.773Z,1027.65
2023-02-11T02:56:53.720Z,1027.67
2023-02-11T02:57:53.708Z,1027.65
2023-02-11T02:58:53.700Z,1027.60
2023-02-11T02:59:53.688Z,1027.63
2023-02-11T03:00:53.721Z,1027.63
2023-02-11T03:01:53.645Z,1027.65
2023-02-11T03:02:53.637Z,1027.68
2023-02-11T03:03:53.717Z,1027.66
2023-02-11T03:04:53.627Z,1027.68
2023-02-11T03:05:53.773Z,1027.68
2023-02-11T03:06:53.621Z,1027.71
2023-02-11T03:08:01.112Z,1027.68
2023-02-11T03:09:00.581Z,1027.68
2023-02-11T03:10:00.610Z,1027.67
2023-02-11T03:10:53.570Z,1027.54
2023-02-11T03:11:53.861Z,1027.52
2023-02-11T03:12:53.530Z,1027.28
2023-02-11T03:13:53.540Z,1027.27
2023-02-11T03:14:53.530Z,1027.22
2023-02-11T03:15:53.770Z,1027.19
2023-02-11T03:16:53.490Z,1027.16
2023-02-11T03:17:53.480Z,1027.16
2023-02-11T03:18:53.462Z,1027.15
2023-02-11T03:19:53.461Z,1027.16
2023-02-11T03:20:53.454Z,1027.11
2023-02-11T03:21:54.166Z,1027.12
2023-02-11T03:22:53.410Z,1027.07
2023-02-11T03:23:53.413Z,1027.02
2023-02-11T03:24:53.414Z,1026.84
2023-02-11T03:25:53.381Z,1026.79
2023-02-11T03:26:53.370Z,1026.75
2023-02-11T03:27:53.360Z,1026.70
2023-02-11T03:28:53.381Z,1026.64
2023-02-11T03:29:53.332Z,1026.59
2023-02-11T03:30:53.428Z,1026.35
2023-02-11T03:31:53.727Z,1026.29
2023-02-11T03:32:53.318Z,1026.23
2023-02-11T03:33:53.300Z,1026.21
2023-02-11T03:34:53.273Z,1026.17
2023-02-11T03:35:53.270Z,1025.98
2023-02-11T03:36:53.263Z,1025.97
2023-02-11T03:37:53.243Z,1025.92
2023-02-11T03:38:53.262Z,1025.92
2023-02-11T03:39:53.259Z,1025.92
2023-02-11T03:40:53.202Z,1025.92
2023-02-11T03:41:53.236Z,1025.91
2023-02-11T03:42:53.187Z,1025.86
2023-02-11T03:43:53.181Z,1025.86
2023-02-11T03:44:53.183Z,1025.89
2023-02-11T03:45:53.626Z,1025.87
2023-02-11T03:46:53.151Z,1025.87
2023-02-11T03:47:53.133Z,1025.85
2023-02-11T03:48:53.111Z,1025.83
2023-02-11T03:49:53.124Z,1025.80
2023-02-11T03:50:53.096Z,1025.80
2023-02-11T03:51:53.091Z,1025.76
2023-02-11T03:52:53.070Z,1025.77
2023-02-11T03:53:53.104Z,1025.82
2023-02-11T03:54:53.051Z,1025.84
2023-02-11T03:55:53.131Z,1025.83
2023-02-11T03:56:53.026Z,1025.85
2023-02-11T03:57:53.023Z,1025.81
2023-02-11T03:58:53.002Z,1025.84
2023-02-11T03:59:53.015Z,1025.83
2023-02-11T04:00:53.019Z,1025.82
2023-02-11T04:01:53.281Z,1025.83
2023-02-11T04:02:52.990Z,1025.79
2023-02-11T04:03:52.957Z,1025.78
2023-02-11T04:04:52.951Z,1025.77
2023-02-11T04:05:52.970Z,1025.55
2023-02-11T04:06:52.911Z,1025.53
2023-02-11T04:07:52.903Z,1025.54
2023-02-11T04:08:52.904Z,1025.53
2023-02-11T04:09:52.927Z,1025.53
2023-02-11T04:10:52.893Z,1025.55
2023-02-11T04:11:52.919Z,1025.54
2023-02-11T04:12:52.866Z,1025.54
2023-02-11T04:13:52.844Z,1025.55
2023-02-11T04:14:52.842Z,1025.55
2023-02-11T04:15:53.178Z,1025.55
2023-02-11T04:16:52.817Z,1025.73
2023-02-11T04:17:52.791Z,1025.74
2023-02-11T04:18:52.794Z,1025.73
2023-02-11T04:19:53.086Z,1025.74
2023-02-11T04:20:52.763Z,1025.54
2023-02-11T04:21:52.791Z,1025.50
2023-02-11T04:22:52.731Z,1025.48
2023-02-11T04:23:52.723Z,1025.50
2023-02-11T04:24:52.739Z,1025.54
2023-02-11T04:25:52.978Z,1025.74
2023-02-11T04:26:52.693Z,1025.77
2023-02-11T04:27:52.690Z,1025.79
2023-02-11T04:28:52.685Z,1025.81
2023-02-11T04:29:52.680Z,1025.81
2023-02-11T04:30:52.662Z,1025.77
2023-02-11T04:31:52.725Z,1025.79
2023-02-11T04:32:52.624Z,1025.76
2023-02-11T04:33:52.612Z,1025.56
2023-02-11T04:34:52.625Z,1025.53
2023-02-11T04:35:52.770Z,1025.50
2023-02-11T04:36:59.633Z,1025.54
2023-02-11T04:37:59.586Z,1025.49
2023-02-11T04:39:00.582Z,1025.46
2023-02-11T04:39:59.593Z,1025.46
2023-02-11T04:40:59.552Z,1025.45
2023-02-11T04:41:52.523Z,1025.44
2023-02-11T04:42:52.513Z,1025.44
2023-02-11T04:43:52.504Z,1025.47
2023-02-11T04:44:52.516Z,1025.52
2023-02-11T04:45:52.871Z,1025.54
2023-02-11T04:46:52.482Z,1025.74
2023-02-11T04:47:52.458Z,1025.79
2023-02-11T04:48:52.470Z,1025.79
2023-02-11T04:49:52.444Z,1025.81
2023-02-11T04:50:52.438Z,1025.82
2023-02-11T04:51:52.406Z,1025.84
2023-02-11T04:52:52.415Z,1025.83
2023-02-11T04:53:52.395Z,1025.83
2023-02-11T04:54:52.394Z,1025.79
2023-02-11T04:55:52.668Z,1025.76
2023-02-11T04:56:52.375Z,1025.56
2023-02-11T04:57:52.364Z,1025.54
2023-02-11T04:58:52.343Z,1025.54
2023-02-11T04:59:52.332Z,1025.48
2023-02-11T05:00:52.365Z,1025.49
2023-02-11T05:01:52.303Z,1025.51
2023-02-11T05:02:52.293Z,1025.52
2023-02-11T05:03:52.311Z,1025.51
2023-02-11T05:04:52.298Z,1025.52
2023-02-11T05:05:52.706Z,1025.54
2023-02-11T05:06:52.256Z,1025.73
2023-02-11T05:07:52.276Z,1025.76
2023-02-11T05:08:52.240Z,1025.78
2023-02-11T05:09:52.226Z,1025.80
2023-02-11T05:10:52.216Z,1025.85
2023-02-11T05:11:52.361Z,1025.87
2023-02-11T05:12:54.649Z,1025.90
2023-02-11T05:13:52.164Z,1025.94
2023-02-11T05:14:52.191Z,1025.92
2023-02-11T05:15:52.536Z,1026.01
2023-02-11T05:16:52.229Z,1026.22
2023-02-11T05:17:52.122Z,1026.25
2023-02-11T05:18:52.679Z,1026.29
2023-02-11T05:19:52.113Z,1026.34
2023-02-11T05:20:52.104Z,1026.38
2023-02-11T05:22:02.045Z,1026.59
2023-02-11T05:22:53.077Z,1026.65
2023-02-11T05:23:52.058Z,1026.70
2023-02-11T05:24:52.067Z,1026.74
2023-02-11T05:25:52.376Z,1026.78
2023-02-11T05:26:52.033Z,1026.85
2023-02-11T05:27:52.022Z,1027.05
2023-02-11T05:28:52.006Z,1027.11
2023-02-11T05:29:52.015Z,1027.17
2023-02-11T05:30:52.071Z,1027.20
2023-02-11T05:31:51.964Z,1027.23
2023-02-11T05:32:51.987Z,1027.24
2023-02-11T05:33:51.960Z,1027.28
2023-02-11T05:34:51.935Z,1027.30
2023-02-11T05:35:52.189Z,1027.51
2023-02-11T05:36:51.917Z,1027.54
2023-02-11T05:37:51.905Z,1027.59
2023-02-11T05:38:51.892Z,1027.63
2023-02-11T05:39:51.889Z,1027.62
2023-02-11T05:40:51.872Z,1027.62
2023-02-11T05:41:51.867Z,1027.67
2023-02-11T05:42:51.846Z,1027.71
2023-02-11T05:43:51.836Z,1027.69
2023-02-11T05:44:51.838Z,1027.75
2023-02-11T05:45:52.154Z,1027.74
2023-02-11T05:46:51.804Z,1027.77
2023-02-11T05:47:51.781Z,1027.77
2023-02-11T05:48:51.787Z,1027.75
2023-02-11T05:49:51.774Z,1027.74
2023-02-11T05:50:51.761Z,1027.79
2023-02-11T05:51:51.753Z,1027.77
2023-02-11T05:52:51.733Z,1027.80
2023-02-11T05:53:51.712Z,1027.81
2023-02-11T05:54:51.718Z,1027.76
2023-02-11T05:55:51.981Z,1027.78
2023-02-11T05:56:51.683Z,1027.80
2023-02-11T05:57:51.691Z,1027.82
2023-02-11T05:58:51.665Z,1027.85
2023-02-11T05:59:51.693Z,1027.85
2023-02-11T06:00:51.624Z,1027.83
2023-02-11T06:01:51.635Z,1027.79
2023-02-11T06:02:51.654Z,1027.80
2023-02-11T06:03:51.673Z,1027.77
2023-02-11T06:04:51.596Z,1027.78
2023-02-11T06:05:51.904Z,1027.79
2023-02-11T06:06:51.597Z,1027.77
2023-02-11T06:07:51.554Z,1027.80
2023-02-11T06:08:58.574Z,1027.80
2023-02-11T06:09:58.556Z,1027.81
2023-02-11T06:10:58.538Z,1027.79
2023-02-11T06:11:58.536Z,1027.79
2023-02-11T06:12:51.494Z,1027.77
2023-02-11T06:13:51.484Z,1027.77
2023-02-11T06:14:51.505Z,1027.77
2023-02-11T06:15:51.819Z,1027.77
2023-02-11T06:16:51.478Z,1027.83
2023-02-11T06:17:51.445Z,1027.82
2023-02-11T06:18:51.434Z,1027.85
2023-02-11T06:19:51.439Z,1028.05
2023-02-11T06:20:51.404Z,1028.10
2023-02-11T06:21:51.399Z,1028.13
2023-02-11T06:22:51.389Z,1028.16
2023-02-11T06:23:51.364Z,1028.18
2023-02-11T06:25:01.344Z,1028.23
2023-02-11T06:25:52.545Z,1028.26
2023-02-11T06:26:51.365Z,1028.28
2023-02-11T06:27:51.325Z,1028.29
2023-02-11T06:28:51.316Z,1028.34
2023-02-11T06:29:51.316Z,1028.39
2023-02-11T06:30:51.409Z,1028.41
2023-02-11T06:31:51.411Z,1028.61
2023-02-11T06:32:51.331Z,1028.64
2023-02-11T06:33:51.254Z,1028.69
2023-02-11T06:34:51.276Z,1028.67
2023-02-11T06:35:51.504Z,1028.73
2023-02-11T06:36:51.238Z,1028.74
2023-02-11T06:37:51.218Z,1028.74
2023-02-11T06:38:51.211Z,1028.72
2023-02-11T06:39:51.219Z,1028.71
2023-02-11T06:40:51.190Z,1028.70
2023-02-11T06:41:51.167Z,1028.74
2023-02-11T06:42:51.161Z,1028.78
2023-02-11T06:43:51.145Z,1028.78
2023-02-11T06:44:51.147Z,1028.80
2023-02-11T06:45:51.416Z,1028.88
2023-02-11T06:46:51.151Z,1028.88
2023-02-11T06:47:51.096Z,1028.94
2023-02-11T06:48:51.098Z,1028.93
2023-02-11T06:49:51.078Z,1028.98
2023-02-11T06:50:51.070Z,1028.96
2023-02-11T06:51:51.058Z,1028.99
2023-02-11T06:52:51.045Z,1029.00
2023-02-11T06:53:51.042Z,1029.05
2023-02-11T06:54:51.018Z,1029.06
2023-02-11T06:55:51.264Z,1029.09
2023-02-11T06:56:51.008Z,1029.08
2023-02-11T06:57:52.781Z,1029.29
2023-02-11T06:58:50.979Z,1029.33
2023-02-11T06:59:50.950Z,1029.33
2023-02-11T07:00:50.950Z,1029.32
2023-02-11T07:01:50.958Z,1029.32
2023-02-11T07:02:50.988Z,1029.28
2023-02-11T07:03:50.907Z,1029.29
2023-02-11T07:04:50.923Z,1029.12
2023-02-11T07:05:51.237Z,1029.10
2023-02-11T07:06:50.892Z,1029.07
2023-02-11T07:07:50.862Z,1029.13
2023-02-11T07:08:50.858Z,1029.27
2023-02-11T07:09:50.859Z,1029.30
2023-02-11T07:10:50.835Z,1029.37
2023-02-11T07:11:50.868Z,1029.40
2023-02-11T07:12:51.122Z,1029.38
2023-02-11T07:13:50.800Z,1029.37
2023-02-11T07:14:50.817Z,1029.41
2023-02-11T07:15:51.107Z,1029.45
2023-02-11T07:16:50.783Z,1029.46
2023-02-11T07:17:50.749Z,1029.44
2023-02-11T07:18:50.730Z,1029.48
2023-02-11T07:19:50.743Z,1029.49
2023-02-11T07:20:50.740Z,1029.50
2023-02-11T07:21:50.730Z,1029.51
2023-02-11T07:22:50.701Z,1029.49
2023-02-11T07:23:50.689Z,1029.49
2023-02-11T07:24:50.683Z,1029.49
2023-02-11T07:25:50.969Z,1029.47
2023-02-11T07:26:50.657Z,1029.48
2023-02-11T07:27:50.641Z,1029.52
2023-02-11T07:28:50.620Z,1029.57
2023-02-11T07:29:50.612Z,1029.57
2023-02-11T07:30:50.621Z,1029.63
2023-02-11T07:31:50.663Z,1029.65
2023-02-11T07:32:50.569Z,1029.65
2023-02-11T07:33:50.571Z,1029.68
2023-02-11T07:34:50.569Z,1029.70
2023-02-11T07:35:50.773Z,1029.69
2023-02-11T07:36:50.563Z,1029.67
2023-02-11T07:37:50.510Z,1029.68
2023-02-11T07:38:57.519Z,1029.72
2023-02-11T07:39:57.518Z,1029.74
2023-02-11T07:40:57.500Z,1029.77
2023-02-11T07:41:50.480Z,1029.76
2023-02-11T07:42:57.490Z,1029.82
2023-02-11T07:43:50.456Z,1029.83
2023-02-11T07:44:50.759Z,1029.88
2023-02-11T07:45:50.679Z,1029.88
2023-02-11T07:46:50.481Z,1029.88
2023-02-11T07:47:50.405Z,1029.83
2023-02-11T07:48:50.395Z,1029.84
2023-02-11T07:49:50.396Z,1029.84
2023-02-11T07:50:50.366Z,1029.82
2023-02-11T07:51:50.385Z,1029.86
2023-02-11T07:52:50.340Z,1029.86
2023-02-11T07:53:50.358Z,1029.85
2023-02-11T07:54:50.335Z,1029.87
2023-02-11T07:55:50.749Z,1029.85
2023-02-11T07:56:50.297Z,1029.85
2023-02-11T07:57:50.285Z,1029.84
2023-02-11T07:58:50.287Z,1029.90
2023-02-11T07:59:50.275Z,1029.86
2023-02-11T08:00:50.330Z,1029.86
2023-02-11T08:01:50.265Z,1029.92
2023-02-11T08:02:50.235Z,1029.91
2023-02-11T08:03:50.226Z,1029.98
2023-02-11T08:04:50.246Z,1030.03
2023-02-11T08:05:50.557Z,1030.02
2023-02-11T08:06:50.185Z,1030.05
2023-02-11T08:07:50.176Z,1030.07
2023-02-11T08:08:50.165Z,1030.05
2023-02-11T08:09:50.177Z,1030.08
2023-02-11T08:10:50.490Z,1030.12
2023-02-11T08:11:50.135Z,1030.09
2023-02-11T08:12:50.113Z,1030.13
2023-02-11T08:13:50.130Z,1030.17
2023-02-11T08:14:50.124Z,1030.19
2023-02-11T08:15:50.365Z,1030.21
2023-02-11T08:16:50.146Z,1030.22
2023-02-11T08:17:50.076Z,1030.26
2023-02-11T08:18:50.057Z,1030.23
2023-02-11T08:19:50.044Z,1030.19
2023-02-11T08:20:50.365Z,1030.19
2023-02-11T08:21:50.029Z,1030.17
2023-02-11T08:22:49.994Z,1030.09
2023-02-11T08:23:50.004Z,1030.10
2023-02-11T08:24:52.314Z,1030.10
2023-02-11T08:25:49.976Z,1030.10
2023-02-11T08:26:49.973Z,1030.09
2023-02-11T08:27:49.947Z,1030.10
2023-02-11T08:28:49.933Z,1030.10
2023-02-11T08:29:49.934Z,1030.11
2023-02-11T08:30:50.285Z,1030.11
2023-02-11T08:31:49.973Z,1030.14
2023-02-11T08:32:49.899Z,1030.18
2023-02-11T08:33:49.887Z,1030.20
2023-02-11T08:34:49.895Z,1030.23
2023-02-11T08:35:49.863Z,1030.23
2023-02-11T08:36:49.849Z,1030.25
2023-02-11T08:37:49.860Z,1030.26
2023-02-11T08:38:49.812Z,1030.34
2023-02-11T08:39:49.831Z,1030.37
2023-02-11T08:40:50.195Z,1030.36
2023-02-11T08:41:49.807Z,1030.40
2023-02-11T08:42:49.794Z,1030.39
2023-02-11T08:43:49.825Z,1030.41
2023-02-11T08:44:49.772Z,1030.49
2023-02-11T08:45:50.067Z,1030.54
2023-02-11T08:46:49.732Z,1030.60
2023-02-11T08:47:49.755Z,1030.61
2023-02-11T08:48:49.702Z,1030.59
2023-02-11T08:49:49.700Z,1030.62
2023-02-11T08:50:49.684Z,1030.65
2023-02-11T08:51:49.676Z,1030.60
2023-02-11T08:52:49.674Z,1030.58
2023-02-11T08:53:49.650Z,1030.62
2023-02-11T08:54:49.642Z,1030.63
2023-02-11T08:55:49.969Z,1030.63
2023-02-11T08:56:49.618Z,1030.64
2023-02-11T08:57:49.612Z,1030.60
2023-02-11T08:58:49.594Z,1030.58
2023-02-11T08:59:49.614Z,1030.60
2023-02-11T09:00:50.052Z,1030.60
2023-02-11T09:01:49.666Z,1030.60
2023-02-11T09:02:49.983Z,1030.64
2023-02-11T09:03:49.866Z,1030.68
2023-02-11T09:04:49.539Z,1030.73
2023-02-11T09:05:49.515Z,1030.78
2023-02-11T09:06:49.506Z,1030.81
2023-02-11T09:07:49.495Z,1030.79
2023-02-11T09:08:49.579Z,1030.79
2023-02-11T09:09:52.211Z,1030.80
2023-02-11T09:10:49.859Z,1030.81
2023-02-11T09:11:49.446Z,1030.78
2023-02-11T09:12:49.434Z,1030.82
2023-02-11T09:13:50.510Z,1030.82
2023-02-11T09:14:49.435Z,1030.84
2023-02-11T09:15:49.413Z,1030.82
2023-02-11T09:16:49.504Z,1030.80
2023-02-11T09:17:49.393Z,1030.83
2023-02-11T09:18:49.394Z,1030.84
2023-02-11T09:19:49.441Z,1030.88
2023-02-11T09:20:49.525Z,1030.88
2023-02-11T09:21:49.370Z,1030.97
2023-02-11T09:22:49.340Z,1031.02
2023-02-11T09:23:49.353Z,1031.06
2023-02-11T09:24:49.330Z,1031.14
2023-02-11T09:25:49.558Z,1031.18
2023-02-11T09:26:49.276Z,1031.22
2023-02-11T09:27:49.268Z,1031.28
2023-02-11T09:28:49.252Z,1031.32
2023-02-11T09:29:49.271Z,1031.37
2023-02-11T09:30:49.663Z,1031.39
2023-02-11T09:31:49.366Z,1031.45
2023-02-11T09:32:49.216Z,1031.51
2023-02-11T09:33:49.210Z,1031.55
2023-02-11T09:34:49.530Z,1031.52
2023-02-11T09:35:49.187Z,1031.55
2023-02-11T09:36:49.167Z,1031.53
2023-02-11T09:37:49.183Z,1031.52
2023-02-11T09:38:49.150Z,1031.59
2023-02-11T09:39:49.221Z,1031.63
2023-02-11T09:40:49.387Z,1031.64
2023-02-11T09:41:49.121Z,1031.62
2023-02-11T09:42:49.116Z,1031.66
2023-02-11T09:43:49.186Z,1031.68
2023-02-11T09:44:49.108Z,1031.69
2023-02-11T09:45:49.117Z,1031.66
2023-02-11T09:46:49.084Z,1031.62
2023-02-11T09:47:49.057Z,1031.61
2023-02-11T09:48:49.042Z,1031.63
2023-02-11T09:49:49.307Z,1031.61
2023-02-11T09:50:49.211Z,1031.65
2023-02-11T09:51:49.037Z,1031.65
2023-02-11T09:52:49.011Z,1031.71
2023-02-11T09:53:49.067Z,1031.72
2023-02-11T09:54:49.437Z,1031.72
2023-02-11T09:55:48.973Z,1031.78
2023-02-11T09:56:49.002Z,1031.81
2023-02-11T09:57:48.968Z,1031.86
2023-02-11T09:58:48.924Z,1031.91
2023-02-11T09:59:48.922Z,1031.94
2023-02-11T10:00:49.124Z,1031.99
2023-02-11T10:01:49.002Z,1032.03
2023-02-11T10:02:48.892Z,1032.02
2023-02-11T10:03:48.932Z,1032.05
2023-02-11T10:04:49.197Z,1032.16
2023-02-11T10:05:48.861Z,1032.24
2023-02-11T10:06:48.834Z,1032.26
2023-02-11T10:07:48.832Z,1032.33
2023-02-11T10:08:48.813Z,1032.32
2023-02-11T10:09:49.131Z,1032.37
2023-02-11T10:10:49.029Z,1032.44
2023-02-11T10:11:48.784Z,1032.49
2023-02-11T10:12:48.780Z,1032.46
2023-02-11T10:13:48.816Z,1032.47
2023-02-11T10:14:50.663Z,1032.45
2023-02-11T10:15:48.833Z,1032.53
2023-02-11T10:16:48.730Z,1032.55
2023-02-11T10:17:48.727Z,1032.53
2023-02-11T10:18:48.838Z,1032.58
2023-02-11T10:19:48.707Z,1032.60
2023-02-11T10:20:48.871Z,1032.62
2023-02-11T10:21:48.666Z,1032.61
2023-02-11T10:22:48.666Z,1032.71
2023-02-11T10:23:48.688Z,1032.76
2023-02-11T10:24:48.969Z,1032.81
2023-02-11T10:25:48.654Z,1032.82
2023-02-11T10:26:48.636Z,1032.84
2023-02-11T10:27:48.609Z,1032.84
2023-02-11T10:28:48.613Z,1033.02
2023-02-11T10:29:48.579Z,1033.03
2023-02-11T10:30:48.707Z,1033.04
2023-02-11T10:31:48.638Z,1033.06
2023-02-11T10:32:48.560Z,1033.07
2023-02-11T10:33:48.579Z,1033.09
2023-02-11T10:34:48.583Z,1033.26
2023-02-11T10:35:48.561Z,1033.27
2023-02-11T10:36:48.508Z,1033.28
2023-02-11T10:37:48.487Z,1033.29
2023-02-11T10:38:50.450Z,1033.30
2023-02-11T10:39:48.465Z,1033.33
2023-02-11T10:40:56.501Z,1033.34
2023-02-11T10:41:48.449Z,1033.50
2023-02-11T10:42:48.435Z,1033.50
2023-02-11T10:43:48.429Z,1033.51
2023-02-11T10:44:48.442Z,1033.53
2023-02-11T10:45:48.505Z,1033.56
2023-02-11T10:46:48.435Z,1033.56
2023-02-11T10:47:48.434Z,1033.57
2023-02-11T10:48:48.389Z,1033.57
2023-02-11T10:49:48.358Z,1033.75
2023-02-11T10:50:49.336Z,1033.77
2023-02-11T10:51:48.330Z,1033.78
2023-02-11T10:52:48.340Z,1033.79
2023-02-11T10:53:48.370Z,1033.79
2023-02-11T10:54:48.338Z,1033.79
2023-02-11T10:55:48.292Z,1033.79
2023-02-11T10:56:48.270Z,1033.79
2023-02-11T10:57:48.268Z,1033.79
2023-02-11T10:58:48.251Z,1033.72
2023-02-11T10:59:48.254Z,1033.65
2023-02-11T11:00:48.320Z,1033.58
2023-02-11T11:01:48.290Z,1033.56
2023-02-11T11:02:48.223Z,1033.51
2023-02-11T11:03:48.254Z,1033.32
2023-02-11T11:04:48.227Z,1033.26
2023-02-11T11:05:48.170Z,1033.04
2023-02-11T11:06:48.164Z,1033.04
2023-02-11T11:07:48.144Z,1032.97
2023-02-11T11:08:48.198Z,1032.75
2023-02-11T11:09:48.134Z,1032.65
2023-02-11T11:10:48.153Z,1032.66
2023-02-11T11:11:48.104Z,1032.64
2023-02-11T11:12:48.089Z,1032.67
2023-02-11T11:13:48.105Z,1032.74
2023-02-11T11:14:48.072Z,1032.76
2023-02-11T11:15:48.078Z,1032.92
2023-02-11T11:16:48.054Z,1032.90
2023-02-11T11:17:48.049Z,1032.79
2023-02-11T11:18:48.055Z,1032.77
2023-02-11T11:19:48.055Z,1032.97
2023-02-11T11:20:48.095Z,1033.01
2023-02-11T11:21:47.982Z,1032.84
2023-02-11T11:22:47.963Z,1032.62
2023-02-11T11:23:47.963Z,1032.43
2023-02-11T11:24:47.972Z,1032.27
2023-02-11T11:25:47.942Z,1032.12
2023-02-11T11:26:47.932Z,1031.97
2023-02-11T11:27:47.929Z,1031.58
2023-02-11T11:28:47.904Z,1031.45
2023-02-11T11:29:47.915Z,1031.52
2023-02-11T11:30:47.942Z,1031.51
2023-02-11T11:31:47.967Z,1031.60
2023-02-11T11:32:47.853Z,1031.63
2023-02-11T11:33:47.872Z,1031.74
2023-02-11T11:34:47.822Z,1031.73
2023-02-11T11:35:47.821Z,1031.59
2023-02-11T11:36:47.804Z,1031.54
2023-02-11T11:37:47.801Z,1031.30
2023-02-11T11:38:47.791Z,1031.10
2023-02-11T11:39:47.781Z,1031.11
2023-02-11T11:40:47.809Z,1031.24
2023-02-11T11:41:47.860Z,1031.19
2023-02-11T11:42:47.740Z,1030.97
2023-02-11T11:43:47.739Z,1030.99
2023-02-11T11:44:47.720Z,1030.69
2023-02-11T11:45:47.690Z,1030.80
2023-02-11T11:46:47.748Z,1031.31
2023-02-11T11:47:47.690Z,1031.46
2023-02-11T11:48:48.621Z,1031.56
2023-02-11T11:49:47.664Z,1031.74
2023-02-11T11:50:47.709Z,1031.69
2023-02-11T11:51:47.628Z,1031.57
2023-02-11T11:52:47.618Z,1031.24
2023-02-11T11:53:47.611Z,1031.13
2023-02-11T11:54:47.609Z,1031.09
2023-02-11T11:55:47.593Z,1031.44
2023-02-11T11:56:47.568Z,1032.12
2023-02-11T11:57:47.563Z,1032.09
2023-02-11T11:58:47.558Z,1031.89
2023-02-11T11:59:47.541Z,1031.76
2023-02-11T12:00:47.537Z,1031.52
2023-02-11T12:01:47.514Z,1031.37
2023-02-11T12:02:47.525Z,1031.37
2023-02-11T12:03:47.506Z,1031.24
2023-02-11T12:04:47.480Z,1031.01
2023-02-11T12:05:47.475Z,1031.24